sensor_id;sensor_type;location;lat;lon;timestamp;temperature;humidity
28358;DHT22;15605;48.114;11.522;2024-02-28T00:02:15;12.20;59.70
28358;DHT22;15605;48.114;11.522;2024-02-28T00:04:45;12.20;59.60
28358;DHT22;15605;48.114;11.522;2024-02-28T00:07:15;12.30;59.70
28358;DHT22;15605;48.114;11.522;2024-02-28T00:09:46;12.20;59.70
28358;DHT22;15605;48.114;11.522;2024-02-28T00:12:17;12.30;59.70
28358;DHT22;15605;48.114;11.522;2024-02-28T00:14:48;12.30;59.70
28358;DHT22;15605;48.114;11.522;2024-02-28T00:17:20;12.30;59.70
28358;DHT22;15605;48.114;11.522;2024-02-28T00:19:50;12.20;59.80
28358;DHT22;15605;48.114;11.522;2024-02-28T00:22:22;12.20;59.70
28358;DHT22;15605;48.114;11.522;2024-02-28T00:24:53;12.30;59.80
28358;DHT22;15605;48.114;11.522;2024-02-28T00:27:24;12.30;59.80
28358;DHT22;15605;48.114;11.522;2024-02-28T00:29:54;12.20;59.80
28358;DHT22;15605;48.114;11.522;2024-02-28T00:32:25;12.30;59.90
28358;DHT22;15605;48.114;11.522;2024-02-28T00:34:55;12.30;59.70
28358;DHT22;15605;48.114;11.522;2024-02-28T00:37:25;12.30;59.80
28358;DHT22;15605;48.114;11.522;2024-02-28T00:39:55;12.30;59.80
28358;DHT22;15605;48.114;11.522;2024-02-28T00:42:25;12.30;59.80
28358;DHT22;15605;48.114;11.522;2024-02-28T00:44:55;12.30;59.90
28358;DHT22;15605;48.114;11.522;2024-02-28T00:47:27;12.30;59.90
28358;DHT22;15605;48.114;11.522;2024-02-28T00:49:58;12.30;60.00
28358;DHT22;15605;48.114;11.522;2024-02-28T00:52:31;12.30;59.90
28358;DHT22;15605;48.114;11.522;2024-02-28T00:55:01;12.30;59.90
28358;DHT22;15605;48.114;11.522;2024-02-28T00:57:34;12.30;59.90
28358;DHT22;15605;48.114;11.522;2024-02-28T01:00:05;12.30;59.80
28358;DHT22;15605;48.114;11.522;2024-02-28T01:02:37;12.30;59.90
28358;DHT22;15605;48.114;11.522;2024-02-28T01:05:08;12.40;59.80
28358;DHT22;15605;48.114;11.522;2024-02-28T01:07:39;12.30;59.80
28358;DHT22;15605;48.114;11.522;2024-02-28T01:10:11;12.30;59.90
28358;DHT22;15605;48.114;11.522;2024-02-28T01:12:42;12.30;59.90
28358;DHT22;15605;48.114;11.522;2024-02-28T01:15:13;12.30;59.90
28358;DHT22;15605;48.114;11.522;2024-02-28T01:17:42;12.30;60.00
28358;DHT22;15605;48.114;11.522;2024-02-28T01:20:12;12.30;60.00
28358;DHT22;15605;48.114;11.522;2024-02-28T01:22:44;12.30;60.10
28358;DHT22;15605;48.114;11.522;2024-02-28T01:25:14;12.30;60.10
28358;DHT22;15605;48.114;11.522;2024-02-28T01:27:44;12.30;60.00
28358;DHT22;15605;48.114;11.522;2024-02-28T01:30:15;12.30;60.10
28358;DHT22;15605;48.114;11.522;2024-02-28T01:32:45;12.30;60.20
28358;DHT22;15605;48.114;11.522;2024-02-28T01:35:16;12.30;60.20
28358;DHT22;15605;48.114;11.522;2024-02-28T01:37:46;12.30;60.10
28358;DHT22;15605;48.114;11.522;2024-02-28T01:40:17;12.30;60.20
28358;DHT22;15605;48.114;11.522;2024-02-28T01:42:47;12.30;60.20
28358;DHT22;15605;48.114;11.522;2024-02-28T01:45:18;12.30;60.10
28358;DHT22;15605;48.114;11.522;2024-02-28T01:47:49;12.30;60.20
28358;DHT22;15605;48.114;11.522;2024-02-28T01:50:19;12.20;60.10
28358;DHT22;15605;48.114;11.522;2024-02-28T01:52:49;12.30;60.20
28358;DHT22;15605;48.114;11.522;2024-02-28T01:55:19;12.30;60.20
28358;DHT22;15605;48.114;11.522;2024-02-28T01:57:51;12.30;60.30
28358;DHT22;15605;48.114;11.522;2024-02-28T02:00:22;12.20;60.20
28358;DHT22;15605;48.114;11.522;2024-02-28T02:02:55;12.20;60.30
28358;DHT22;15605;48.114;11.522;2024-02-28T02:05:26;12.30;60.30
28358;DHT22;15605;48.114;11.522;2024-02-28T02:07:57;12.30;60.30
28358;DHT22;15605;48.114;11.522;2024-02-28T02:10:31;12.30;60.10
28358;DHT22;15605;48.114;11.522;2024-02-28T02:13:07;12.30;60.20
28358;DHT22;15605;48.114;11.522;2024-02-28T02:15:38;12.30;60.30
28358;DHT22;15605;48.114;11.522;2024-02-28T02:18:10;12.20;60.40
28358;DHT22;15605;48.114;11.522;2024-02-28T02:20:41;12.20;60.40
28358;DHT22;15605;48.114;11.522;2024-02-28T02:23:13;12.20;60.50
28358;DHT22;15605;48.114;11.522;2024-02-28T02:25:45;12.30;60.50
28358;DHT22;15605;48.114;11.522;2024-02-28T02:28:16;12.30;60.60
28358;DHT22;15605;48.114;11.522;2024-02-28T02:30:49;12.20;60.60
28358;DHT22;15605;48.114;11.522;2024-02-28T02:33:19;12.20;60.50
28358;DHT22;15605;48.114;11.522;2024-02-28T02:35:49;12.30;60.70
28358;DHT22;15605;48.114;11.522;2024-02-28T02:38:18;12.30;60.70
28358;DHT22;15605;48.114;11.522;2024-02-28T02:40:51;12.20;60.60
28358;DHT22;15605;48.114;11.522;2024-02-28T02:43:22;12.20;60.70
28358;DHT22;15605;48.114;11.522;2024-02-28T02:45:52;12.20;60.70
28358;DHT22;15605;48.114;11.522;2024-02-28T02:48:23;12.20;60.90
28358;DHT22;15605;48.114;11.522;2024-02-28T02:50:53;12.20;60.80
28358;DHT22;15605;48.114;11.522;2024-02-28T02:53:23;12.20;60.80
28358;DHT22;15605;48.114;11.522;2024-02-28T02:55:57;12.20;60.80
28358;DHT22;15605;48.114;11.522;2024-02-28T02:58:28;12.20;60.90
28358;DHT22;15605;48.114;11.522;2024-02-28T03:00:57;12.20;60.90
28358;DHT22;15605;48.114;11.522;2024-02-28T03:03:26;12.20;60.90
28358;DHT22;15605;48.114;11.522;2024-02-28T03:05:58;12.20;60.90
28358;DHT22;15605;48.114;11.522;2024-02-28T03:08:27;12.20;60.90
28358;DHT22;15605;48.114;11.522;2024-02-28T03:10:58;12.20;61.00
28358;DHT22;15605;48.114;11.522;2024-02-28T03:13:27;12.20;61.20
28358;DHT22;15605;48.114;11.522;2024-02-28T03:15:56;12.20;61.00
28358;DHT22;15605;48.114;11.522;2024-02-28T03:18:28;12.20;61.00
28358;DHT22;15605;48.114;11.522;2024-02-28T03:20:57;12.20;61.00
28358;DHT22;15605;48.114;11.522;2024-02-28T03:23:28;12.20;61.10
28358;DHT22;15605;48.114;11.522;2024-02-28T03:25:59;12.20;61.10
28358;DHT22;15605;48.114;11.522;2024-02-28T03:28:29;12.20;61.20
28358;DHT22;15605;48.114;11.522;2024-02-28T03:30:58;12.20;61.10
28358;DHT22;15605;48.114;11.522;2024-02-28T03:33:29;12.20;61.10
28358;DHT22;15605;48.114;11.522;2024-02-28T03:36:01;12.20;61.10
28358;DHT22;15605;48.114;11.522;2024-02-28T03:38:30;12.20;61.10
28358;DHT22;15605;48.114;11.522;2024-02-28T03:41:01;12.20;61.10
28358;DHT22;15605;48.114;11.522;2024-02-28T03:43:32;12.20;61.10
28358;DHT22;15605;48.114;11.522;2024-02-28T03:46:03;12.20;61.20
28358;DHT22;15605;48.114;11.522;2024-02-28T03:48:33;12.20;61.10
28358;DHT22;15605;48.114;11.522;2024-02-28T03:51:04;12.20;61.10
28358;DHT22;15605;48.114;11.522;2024-02-28T03:53:34;12.20;61.10
28358;DHT22;15605;48.114;11.522;2024-02-28T03:56:06;12.20;61.30
28358;DHT22;15605;48.114;11.522;2024-02-28T03:58:37;12.20;61.20
28358;DHT22;15605;48.114;11.522;2024-02-28T04:01:07;12.20;61.10
28358;DHT22;15605;48.114;11.522;2024-02-28T04:03:41;12.20;61.10
28358;DHT22;15605;48.114;11.522;2024-02-28T04:06:13;12.20;61.10
28358;DHT22;15605;48.114;11.522;2024-02-28T04:08:43;12.20;61.00
28358;DHT22;15605;48.114;11.522;2024-02-28T04:11:14;12.20;60.90
28358;DHT22;15605;48.114;11.522;2024-02-28T04:13:45;12.20;60.90
28358;DHT22;15605;48.114;11.522;2024-02-28T04:16:16;12.30;60.70
28358;DHT22;15605;48.114;11.522;2024-02-28T04:18:48;12.30;60.80
28358;DHT22;15605;48.114;11.522;2024-02-28T04:21:19;12.30;60.80
28358;DHT22;15605;48.114;11.522;2024-02-28T04:23:49;12.30;60.80
28358;DHT22;15605;48.114;11.522;2024-02-28T04:26:19;12.30;60.70
28358;DHT22;15605;48.114;11.522;2024-02-28T04:28:48;12.30;60.70
28358;DHT22;15605;48.114;11.522;2024-02-28T04:31:18;12.30;60.80
28358;DHT22;15605;48.114;11.522;2024-02-28T04:33:48;12.30;60.90
28358;DHT22;15605;48.114;11.522;2024-02-28T04:36:19;12.20;60.80
28358;DHT22;15605;48.114;11.522;2024-02-28T04:38:50;12.20;61.00
28358;DHT22;15605;48.114;11.522;2024-02-28T04:41:20;12.20;61.00
28358;DHT22;15605;48.114;11.522;2024-02-28T04:43:49;12.20;61.10
28358;DHT22;15605;48.114;11.522;2024-02-28T04:46:20;12.20;61.20
28358;DHT22;15605;48.114;11.522;2024-02-28T04:48:51;12.20;61.20
28358;DHT22;15605;48.114;11.522;2024-02-28T04:51:23;12.20;61.00
28358;DHT22;15605;48.114;11.522;2024-02-28T04:53:55;12.20;61.10
28358;DHT22;15605;48.114;11.522;2024-02-28T04:56:26;12.30;61.10
28358;DHT22;15605;48.114;11.522;2024-02-28T04:58:56;12.20;61.00
28358;DHT22;15605;48.114;11.522;2024-02-28T05:01:28;12.20;60.90
28358;DHT22;15605;48.114;11.522;2024-02-28T05:03:59;12.20;60.90
28358;DHT22;15605;48.114;11.522;2024-02-28T05:06:29;12.20;61.70
28358;DHT22;15605;48.114;11.522;2024-02-28T05:08:59;12.20;60.90
28358;DHT22;15605;48.114;11.522;2024-02-28T05:11:31;12.30;60.90
28358;DHT22;15605;48.114;11.522;2024-02-28T05:14:02;12.20;60.90
28358;DHT22;15605;48.114;11.522;2024-02-28T05:16:31;12.30;61.10
28358;DHT22;15605;48.114;11.522;2024-02-28T05:19:01;12.30;61.00
28358;DHT22;15605;48.114;11.522;2024-02-28T05:21:38;12.20;61.00
28358;DHT22;15605;48.114;11.522;2024-02-28T05:24:10;12.30;60.90
28358;DHT22;15605;48.114;11.522;2024-02-28T05:26:41;12.30;61.00
28358;DHT22;15605;48.114;11.522;2024-02-28T05:29:13;12.30;61.00
28358;DHT22;15605;48.114;11.522;2024-02-28T05:31:42;12.20;61.00
28358;DHT22;15605;48.114;11.522;2024-02-28T05:34:13;12.20;61.00
28358;DHT22;15605;48.114;11.522;2024-02-28T05:36:44;12.20;61.00
28358;DHT22;15605;48.114;11.522;2024-02-28T05:39:15;12.30;61.10
28358;DHT22;15605;48.114;11.522;2024-02-28T05:41:44;12.20;61.10
28358;DHT22;15605;48.114;11.522;2024-02-28T05:44:15;12.20;61.10
28358;DHT22;15605;48.114;11.522;2024-02-28T05:46:46;12.20;61.00
28358;DHT22;15605;48.114;11.522;2024-02-28T05:49:17;12.30;61.10
28358;DHT22;15605;48.114;11.522;2024-02-28T05:51:49;12.20;61.10
28358;DHT22;15605;48.114;11.522;2024-02-28T05:54:19;12.20;61.10
28358;DHT22;15605;48.114;11.522;2024-02-28T05:56:50;12.20;61.20
28358;DHT22;15605;48.114;11.522;2024-02-28T05:59:23;12.20;61.20
28358;DHT22;15605;48.114;11.522;2024-02-28T06:01:55;12.20;61.20
28358;DHT22;15605;48.114;11.522;2024-02-28T06:04:51;12.20;61.20
28358;DHT22;15605;48.114;11.522;2024-02-28T06:07:24;12.10;61.50
28358;DHT22;15605;48.114;11.522;2024-02-28T06:10:01;12.10;61.70
28358;DHT22;15605;48.114;11.522;2024-02-28T06:13:03;12.10;61.70
28358;DHT22;15605;48.114;11.522;2024-02-28T06:16:15;12.20;61.50
28358;DHT22;15605;48.114;11.522;2024-02-28T06:19:33;12.20;61.50
28358;DHT22;15605;48.114;11.522;2024-02-28T06:22:03;12.20;61.50
28358;DHT22;15605;48.114;11.522;2024-02-28T06:24:36;12.20;61.80
28358;DHT22;15605;48.114;11.522;2024-02-28T06:27:10;12.20;62.00
28358;DHT22;15605;48.114;11.522;2024-02-28T06:30:23;12.20;62.10
28358;DHT22;15605;48.114;11.522;2024-02-28T06:32:53;12.20;62.10
28358;DHT22;15605;48.114;11.522;2024-02-28T06:36:06;12.20;62.10
28358;DHT22;15605;48.114;11.522;2024-02-28T06:38:37;12.20;62.10
28358;DHT22;15605;48.114;11.522;2024-02-28T06:41:25;12.20;62.10
28358;DHT22;15605;48.114;11.522;2024-02-28T06:43:56;12.10;62.00
28358;DHT22;15605;48.114;11.522;2024-02-28T06:46:28;12.20;62.20
28358;DHT22;15605;48.114;11.522;2024-02-28T06:48:59;12.10;62.20
28358;DHT22;15605;48.114;11.522;2024-02-28T06:51:29;12.10;62.20
28358;DHT22;15605;48.114;11.522;2024-02-28T06:54:15;12.10;62.20
28358;DHT22;15605;48.114;11.522;2024-02-28T06:57:09;12.20;62.30
28358;DHT22;15605;48.114;11.522;2024-02-28T06:59:49;12.10;62.20
28358;DHT22;15605;48.114;11.522;2024-02-28T07:02:19;12.10;62.30
28358;DHT22;15605;48.114;11.522;2024-02-28T07:04:48;12.10;62.20
28358;DHT22;15605;48.114;11.522;2024-02-28T07:07:18;12.10;62.10
28358;DHT22;15605;48.114;11.522;2024-02-28T07:09:50;12.20;62.20
28358;DHT22;15605;48.114;11.522;2024-02-28T07:12:23;12.20;62.20
28358;DHT22;15605;48.114;11.522;2024-02-28T07:14:58;12.20;62.20
28358;DHT22;15605;48.114;11.522;2024-02-28T07:17:31;12.20;62.10
28358;DHT22;15605;48.114;11.522;2024-02-28T07:20:04;12.10;62.00
28358;DHT22;15605;48.114;11.522;2024-02-28T07:22:35;12.20;62.20
28358;DHT22;15605;48.114;11.522;2024-02-28T07:25:05;12.10;62.90
28358;DHT22;15605;48.114;11.522;2024-02-28T07:27:37;12.20;62.10
28358;DHT22;15605;48.114;11.522;2024-02-28T07:30:13;12.10;61.90
28358;DHT22;15605;48.114;11.522;2024-02-28T07:32:44;12.10;62.00
28358;DHT22;15605;48.114;11.522;2024-02-28T07:35:19;12.20;62.10
28358;DHT22;15605;48.114;11.522;2024-02-28T07:37:53;12.10;62.00
28358;DHT22;15605;48.114;11.522;2024-02-28T07:40:24;12.20;61.90
28358;DHT22;15605;48.114;11.522;2024-02-28T07:42:57;12.20;61.80
28358;DHT22;15605;48.114;11.522;2024-02-28T07:45:32;12.20;61.80
28358;DHT22;15605;48.114;11.522;2024-02-28T07:48:06;12.20;61.70
28358;DHT22;15605;48.114;11.522;2024-02-28T07:50:37;12.20;61.70
28358;DHT22;15605;48.114;11.522;2024-02-28T07:53:17;12.20;61.70
28358;DHT22;15605;48.114;11.522;2024-02-28T07:55:54;12.20;61.60
28358;DHT22;15605;48.114;11.522;2024-02-28T07:58:38;12.20;61.60
28358;DHT22;15605;48.114;11.522;2024-02-28T08:01:11;12.20;61.50
28358;DHT22;15605;48.114;11.522;2024-02-28T08:03:48;12.20;61.50
28358;DHT22;15605;48.114;11.522;2024-02-28T08:06:22;12.20;61.50
28358;DHT22;15605;48.114;11.522;2024-02-28T08:08:57;12.20;61.50
28358;DHT22;15605;48.114;11.522;2024-02-28T08:11:30;12.20;61.60
28358;DHT22;15605;48.114;11.522;2024-02-28T08:14:02;12.20;61.50
28358;DHT22;15605;48.114;11.522;2024-02-28T08:16:35;12.20;61.50
28358;DHT22;15605;48.114;11.522;2024-02-28T08:19:09;12.20;61.50
28358;DHT22;15605;48.114;11.522;2024-02-28T08:21:40;12.20;61.50
28358;DHT22;15605;48.114;11.522;2024-02-28T08:24:11;12.20;61.50
28358;DHT22;15605;48.114;11.522;2024-02-28T08:26:50;12.20;61.50
28358;DHT22;15605;48.114;11.522;2024-02-28T08:29:30;12.20;61.50
28358;DHT22;15605;48.114;11.522;2024-02-28T08:32:13;12.20;61.60
28358;DHT22;15605;48.114;11.522;2024-02-28T08:34:49;12.30;61.60
28358;DHT22;15605;48.114;11.522;2024-02-28T08:37:24;12.20;61.60
28358;DHT22;15605;48.114;11.522;2024-02-28T08:40:37;12.20;61.50
28358;DHT22;15605;48.114;11.522;2024-02-28T08:43:12;12.30;61.60
28358;DHT22;15605;48.114;11.522;2024-02-28T08:45:59;12.20;61.60
28358;DHT22;15605;48.114;11.522;2024-02-28T08:48:36;12.20;61.60
28358;DHT22;15605;48.114;11.522;2024-02-28T08:51:10;12.20;61.50
28358;DHT22;15605;48.114;11.522;2024-02-28T08:53:42;12.20;61.70
28358;DHT22;15605;48.114;11.522;2024-02-28T08:56:16;12.20;61.70
28358;DHT22;15605;48.114;11.522;2024-02-28T08:59:01;12.20;61.70
28358;DHT22;15605;48.114;11.522;2024-02-28T09:01:32;12.20;61.70
28358;DHT22;15605;48.114;11.522;2024-02-28T09:04:09;12.20;61.80
28358;DHT22;15605;48.114;11.522;2024-02-28T09:06:44;12.20;61.70
28358;DHT22;15605;48.114;11.522;2024-02-28T09:09:30;12.20;61.60
28358;DHT22;15605;48.114;11.522;2024-02-28T09:12:07;12.20;61.60
28358;DHT22;15605;48.114;11.522;2024-02-28T09:14:41;12.20;61.60
28358;DHT22;15605;48.114;11.522;2024-02-28T09:17:20;12.20;61.50
28358;DHT22;15605;48.114;11.522;2024-02-28T09:19:52;12.20;61.60
28358;DHT22;15605;48.114;11.522;2024-02-28T09:22:26;12.20;61.50
28358;DHT22;15605;48.114;11.522;2024-02-28T09:24:59;12.20;61.60
28358;DHT22;15605;48.114;11.522;2024-02-28T09:27:38;12.20;61.60
28358;DHT22;15605;48.114;11.522;2024-02-28T09:30:11;12.20;61.60
28358;DHT22;15605;48.114;11.522;2024-02-28T09:32:44;12.20;61.70
28358;DHT22;15605;48.114;11.522;2024-02-28T09:35:21;12.20;61.50
28358;DHT22;15605;48.114;11.522;2024-02-28T09:38:04;12.20;61.60
28358;DHT22;15605;48.114;11.522;2024-02-28T09:40:39;12.20;61.70
28358;DHT22;15605;48.114;11.522;2024-02-28T09:43:35;12.30;61.70
28358;DHT22;15605;48.114;11.522;2024-02-28T09:46:07;12.20;61.50
28358;DHT22;15605;48.114;11.522;2024-02-28T09:48:43;12.20;61.60
28358;DHT22;15605;48.114;11.522;2024-02-28T09:51:19;12.20;61.70
28358;DHT22;15605;48.114;11.522;2024-02-28T09:53:54;12.30;61.80
28358;DHT22;15605;48.114;11.522;2024-02-28T09:56:29;12.20;61.70
28358;DHT22;15605;48.114;11.522;2024-02-28T09:59:12;12.20;61.70
28358;DHT22;15605;48.114;11.522;2024-02-28T10:01:47;12.20;61.70
28358;DHT22;15605;48.114;11.522;2024-02-28T10:04:26;12.20;61.80
28358;DHT22;15605;48.114;11.522;2024-02-28T10:07:14;12.20;61.80
28358;DHT22;15605;48.114;11.522;2024-02-28T10:09:45;12.20;61.90
28358;DHT22;15605;48.114;11.522;2024-02-28T10:12:17;12.20;61.90
28358;DHT22;15605;48.114;11.522;2024-02-28T10:14:53;12.20;62.00
28358;DHT22;15605;48.114;11.522;2024-02-28T10:17:26;12.20;62.00
28358;DHT22;15605;48.114;11.522;2024-02-28T10:20:03;12.20;61.90
28358;DHT22;15605;48.114;11.522;2024-02-28T10:22:36;12.20;61.90
28358;DHT22;15605;48.114;11.522;2024-02-28T10:25:14;12.20;61.90
28358;DHT22;15605;48.114;11.522;2024-02-28T10:27:48;12.10;61.90
28358;DHT22;15605;48.114;11.522;2024-02-28T10:30:22;12.20;62.00
28358;DHT22;15605;48.114;11.522;2024-02-28T10:32:55;12.20;62.00
28358;DHT22;15605;48.114;11.522;2024-02-28T10:35:36;12.20;61.90
28358;DHT22;15605;48.114;11.522;2024-02-28T10:38:07;12.20;61.90
28358;DHT22;15605;48.114;11.522;2024-02-28T10:40:42;12.20;62.00
28358;DHT22;15605;48.114;11.522;2024-02-28T10:43:15;12.10;61.90
28358;DHT22;15605;48.114;11.522;2024-02-28T10:45:52;12.20;61.90
28358;DHT22;15605;48.114;11.522;2024-02-28T10:48:33;12.20;61.80
28358;DHT22;15605;48.114;11.522;2024-02-28T10:51:06;12.20;61.80
28358;DHT22;15605;48.114;11.522;2024-02-28T10:53:41;12.20;61.80
28358;DHT22;15605;48.114;11.522;2024-02-28T10:56:21;12.10;61.80
28358;DHT22;15605;48.114;11.522;2024-02-28T10:58:55;12.20;61.90
28358;DHT22;15605;48.114;11.522;2024-02-28T11:01:35;12.20;61.90
28358;DHT22;15605;48.114;11.522;2024-02-28T11:04:16;12.20;61.90
28358;DHT22;15605;48.114;11.522;2024-02-28T11:06:54;12.20;61.80
28358;DHT22;15605;48.114;11.522;2024-02-28T11:09:29;12.10;61.80
28358;DHT22;15605;48.114;11.522;2024-02-28T11:12:06;12.10;61.80
28358;DHT22;15605;48.114;11.522;2024-02-28T11:14:40;12.10;61.80
28358;DHT22;15605;48.114;11.522;2024-02-28T11:17:13;12.10;61.80
28358;DHT22;15605;48.114;11.522;2024-02-28T11:19:52;12.10;61.90
28358;DHT22;15605;48.114;11.522;2024-02-28T11:22:35;12.20;61.90
28358;DHT22;15605;48.114;11.522;2024-02-28T11:25:06;12.20;61.90
28358;DHT22;15605;48.114;11.522;2024-02-28T11:27:48;12.20;61.90
28358;DHT22;15605;48.114;11.522;2024-02-28T11:30:30;12.10;61.80
28358;DHT22;15605;48.114;11.522;2024-02-28T11:33:13;12.10;61.90
28358;DHT22;15605;48.114;11.522;2024-02-28T11:35:56;12.20;61.80
28358;DHT22;15605;48.114;11.522;2024-02-28T11:38:30;12.20;61.80
28358;DHT22;15605;48.114;11.522;2024-02-28T11:41:04;12.10;61.80
28358;DHT22;15605;48.114;11.522;2024-02-28T11:43:44;12.10;61.80
28358;DHT22;15605;48.114;11.522;2024-02-28T11:46:26;12.10;61.80
28358;DHT22;15605;48.114;11.522;2024-02-28T11:49:04;12.10;61.80
28358;DHT22;15605;48.114;11.522;2024-02-28T11:51:47;12.10;61.80
28358;DHT22;15605;48.114;11.522;2024-02-28T11:54:17;12.10;61.80
28358;DHT22;15605;48.114;11.522;2024-02-28T11:56:51;12.20;61.70
28358;DHT22;15605;48.114;11.522;2024-02-28T11:59:24;12.20;61.80
28358;DHT22;15605;48.114;11.522;2024-02-28T12:01:55;12.10;61.80
28358;DHT22;15605;48.114;11.522;2024-02-28T12:04:25;12.20;61.70
28358;DHT22;15605;48.114;11.522;2024-02-28T12:07:04;12.20;61.70
28358;DHT22;15605;48.114;11.522;2024-02-28T12:09:38;12.10;61.80
28358;DHT22;15605;48.114;11.522;2024-02-28T12:12:11;12.20;61.80
28358;DHT22;15605;48.114;11.522;2024-02-28T12:14:51;12.10;61.80
28358;DHT22;15605;48.114;11.522;2024-02-28T12:17:26;12.10;61.80
28358;DHT22;15605;48.114;11.522;2024-02-28T12:20:02;12.10;61.70
28358;DHT22;15605;48.114;11.522;2024-02-28T12:22:39;12.10;61.70
28358;DHT22;15605;48.114;11.522;2024-02-28T12:25:12;12.20;61.70
28358;DHT22;15605;48.114;11.522;2024-02-28T12:27:45;12.20;61.50
28358;DHT22;15605;48.114;11.522;2024-02-28T12:30:27;12.20;61.60
28358;DHT22;15605;48.114;11.522;2024-02-28T12:33:17;12.20;61.60
28358;DHT22;15605;48.114;11.522;2024-02-28T12:35:58;12.20;61.70
28358;DHT22;15605;48.114;11.522;2024-02-28T12:38:35;12.20;61.80
28358;DHT22;15605;48.114;11.522;2024-02-28T12:41:25;12.10;61.70
28358;DHT22;15605;48.114;11.522;2024-02-28T12:43:57;12.20;61.90
28358;DHT22;15605;48.114;11.522;2024-02-28T12:46:44;12.20;61.80
28358;DHT22;15605;48.114;11.522;2024-02-28T12:49:48;12.20;61.70
28358;DHT22;15605;48.114;11.522;2024-02-28T12:52:33;12.10;61.80
28358;DHT22;15605;48.114;11.522;2024-02-28T12:55:13;12.20;62.60
28358;DHT22;15605;48.114;11.522;2024-02-28T12:57:46;12.20;61.80
28358;DHT22;15605;48.114;11.522;2024-02-28T13:00:27;12.20;61.70
28358;DHT22;15605;48.114;11.522;2024-02-28T13:03:12;12.20;61.70
28358;DHT22;15605;48.114;11.522;2024-02-28T13:05:46;12.20;61.90
28358;DHT22;15605;48.114;11.522;2024-02-28T13:08:22;12.20;61.80
28358;DHT22;15605;48.114;11.522;2024-02-28T13:10:56;12.10;61.90
28358;DHT22;15605;48.114;11.522;2024-02-28T13:13:36;12.20;62.00
28358;DHT22;15605;48.114;11.522;2024-02-28T13:19:14;12.10;62.00
28358;DHT22;15605;48.114;11.522;2024-02-28T13:21:54;12.10;61.90
28358;DHT22;15605;48.114;11.522;2024-02-28T13:24:30;12.10;61.90
28358;DHT22;15605;48.114;11.522;2024-02-28T13:27:15;12.20;61.90
28358;DHT22;15605;48.114;11.522;2024-02-28T13:32:37;12.20;61.90
28358;DHT22;15605;48.114;11.522;2024-02-28T13:35:18;12.20;61.90
28358;DHT22;15605;48.114;11.522;2024-02-28T13:37:53;12.20;61.80
28358;DHT22;15605;48.114;11.522;2024-02-28T13:40:50;12.20;61.70
28358;DHT22;15605;48.114;11.522;2024-02-28T13:43:32;12.20;61.70
28358;DHT22;15605;48.114;11.522;2024-02-28T13:46:05;12.20;61.80
28358;DHT22;15605;48.114;11.522;2024-02-28T13:48:43;12.20;61.90
28358;DHT22;15605;48.114;11.522;2024-02-28T13:51:30;12.10;61.90
28358;DHT22;15605;48.114;11.522;2024-02-28T13:54:00;12.20;62.00
28358;DHT22;15605;48.114;11.522;2024-02-28T13:56:45;12.20;61.90
28358;DHT22;15605;48.114;11.522;2024-02-28T13:59:19;12.20;61.80
28358;DHT22;15605;48.114;11.522;2024-02-28T14:01:51;12.20;61.80
28358;DHT22;15605;48.114;11.522;2024-02-28T14:04:26;12.10;61.80
28358;DHT22;15605;48.114;11.522;2024-02-28T14:07:12;12.20;61.80
28358;DHT22;15605;48.114;11.522;2024-02-28T14:09:47;12.20;61.80
28358;DHT22;15605;48.114;11.522;2024-02-28T14:12:21;12.20;61.90
28358;DHT22;15605;48.114;11.522;2024-02-28T14:15:05;12.10;61.80
28358;DHT22;15605;48.114;11.522;2024-02-28T14:18:02;12.10;61.60
28358;DHT22;15605;48.114;11.522;2024-02-28T14:20:37;12.30;61.20
28358;DHT22;15605;48.114;11.522;2024-02-28T14:23:20;12.40;60.90
28358;DHT22;15605;48.114;11.522;2024-02-28T14:25:54;12.40;60.80
28358;DHT22;15605;48.114;11.522;2024-02-28T14:28:27;12.40;60.80
28358;DHT22;15605;48.114;11.522;2024-02-28T14:31:19;12.40;60.80
28358;DHT22;15605;48.114;11.522;2024-02-28T14:33:59;12.30;60.80
28358;DHT22;15605;48.114;11.522;2024-02-28T14:36:34;12.40;61.00
28358;DHT22;15605;48.114;11.522;2024-02-28T14:39:09;12.30;61.10
28358;DHT22;15605;48.114;11.522;2024-02-28T14:41:50;12.30;61.30
28358;DHT22;15605;48.114;11.522;2024-02-28T14:44:21;12.30;61.30
28358;DHT22;15605;48.114;11.522;2024-02-28T14:46:55;12.20;61.40
28358;DHT22;15605;48.114;11.522;2024-02-28T14:49:29;12.20;61.60
28358;DHT22;15605;48.114;11.522;2024-02-28T14:51:59;12.20;61.80
28358;DHT22;15605;48.114;11.522;2024-02-28T14:54:32;12.20;61.90
28358;DHT22;15605;48.114;11.522;2024-02-28T14:57:03;12.10;61.90
28358;DHT22;15605;48.114;11.522;2024-02-28T14:59:36;12.10;62.10
28358;DHT22;15605;48.114;11.522;2024-02-28T15:02:11;12.10;62.20
28358;DHT22;15605;48.114;11.522;2024-02-28T15:04:42;12.10;62.30
28358;DHT22;15605;48.114;11.522;2024-02-28T15:07:13;12.00;62.50
28358;DHT22;15605;48.114;11.522;2024-02-28T15:09:43;12.00;62.60
28358;DHT22;15605;48.114;11.522;2024-02-28T15:12:15;12.00;62.60
28358;DHT22;15605;48.114;11.522;2024-02-28T15:14:47;12.00;62.60
28358;DHT22;15605;48.114;11.522;2024-02-28T15:17:19;12.00;62.60
28358;DHT22;15605;48.114;11.522;2024-02-28T15:19:52;12.00;62.60
28358;DHT22;15605;48.114;11.522;2024-02-28T15:22:26;12.00;62.70
28358;DHT22;15605;48.114;11.522;2024-02-28T15:24:57;12.00;62.60
28358;DHT22;15605;48.114;11.522;2024-02-28T15:27:34;12.00;62.60
28358;DHT22;15605;48.114;11.522;2024-02-28T15:30:05;12.00;62.60
28358;DHT22;15605;48.114;11.522;2024-02-28T15:32:39;12.10;62.60
28358;DHT22;15605;48.114;11.522;2024-02-28T15:35:19;12.10;62.60
28358;DHT22;15605;48.114;11.522;2024-02-28T15:37:51;12.10;62.60
28358;DHT22;15605;48.114;11.522;2024-02-28T15:40:23;12.00;62.60
28358;DHT22;15605;48.114;11.522;2024-02-28T15:42:54;12.00;62.80
28358;DHT22;15605;48.114;11.522;2024-02-28T15:45:24;12.00;62.90
28358;DHT22;15605;48.114;11.522;2024-02-28T15:47:54;12.00;62.70
28358;DHT22;15605;48.114;11.522;2024-02-28T15:50:26;12.00;62.70
28358;DHT22;15605;48.114;11.522;2024-02-28T15:53:05;12.00;62.70
28358;DHT22;15605;48.114;11.522;2024-02-28T15:55:38;12.00;62.70
28358;DHT22;15605;48.114;11.522;2024-02-28T15:58:11;12.00;62.60
28358;DHT22;15605;48.114;11.522;2024-02-28T16:00:53;12.00;62.30
28358;DHT22;15605;48.114;11.522;2024-02-28T16:03:25;12.00;62.10
28358;DHT22;15605;48.114;11.522;2024-02-28T16:06:58;12.00;62.00
28358;DHT22;15605;48.114;11.522;2024-02-28T16:09:38;12.00;62.00